Time;durP1;ratioP1;P1;durP2;ratioP2;P2;SDS_P1;SDS_P2;PMS_P1;PMS_P2;Temp;Humidity;BMP_temperature;BMP_pressure;BME280_temperature;BME280_humidity;BME280_pressure;Samples;Min_cycle;Max_cycle;Signal;HPM_P1;HPM_P2
2021/06/07 00:00:11;;;;;;;10.68;7.57;;;18.60;95.90;18.60;99884.00;;;;338702;28;91749;-88
2021/06/07 00:00:24;;;;;;;9.70;7.47;;;18.60;95.90;18.60;99889.00;;;;339658;28;89044;-88
2021/06/07 00:00:38;;;;;;;9.88;7.97;;;18.60;95.90;18.60;99889.00;;;;338680;28;88221;-87
2021/06/07 00:00:50;;;;;;;9.73;7.97;;;18.60;95.80;18.70;99885.00;;;;338554;28;89239;-87
2021/06/07 00:01:03;;;;;;;8.68;7.47;;;18.60;95.90;18.70;99877.00;;;;339872;28;91442;-88
2021/06/07 00:01:17;;;;;;;9.35;7.78;;;18.60;95.90;18.70;99881.00;;;;341135;28;87036;-87
2021/06/07 00:01:31;;;;;;;9.25;8.23;;;18.60;95.80;18.60;99883.00;;;;339917;28;91488;-88
2021/06/07 00:01:49;;;;;;;8.73;7.82;;;18.60;95.80;18.60;99884.00;;;;341051;28;88041;-88
2021/06/07 00:02:02;;;;;;;8.55;7.68;;;18.60;95.80;18.60;99885.00;;;;338628;28;89289;-87
2021/06/07 00:02:14;;;;;;;8.70;7.90;;;18.60;95.80;18.60;99883.00;;;;339805;28;87845;-88
2021/06/07 00:02:26;;;;;;;8.73;7.78;;;18.60;95.80;18.60;99889.00;;;;340017;28;88319;-88
2021/06/07 00:02:37;;;;;;;9.35;8.05;;;18.60;95.80;18.60;99879.00;;;;340004;28;86797;-87
2021/06/07 00:02:49;;;;;;;9.77;8.07;;;18.60;95.80;18.70;99885.00;;;;340153;28;88749;-88
2021/06/07 00:03:01;;;;;;;9.88;7.93;;;18.60;95.80;18.70;99881.00;;;;339430;28;89523;-88
2021/06/07 00:03:13;;;;;;;10.23;8.00;;;18.70;95.80;18.70;99887.00;;;;338643;28;91915;-87
2021/06/07 00:03:25;;;;;;;10.10;7.97;;;18.60;95.80;18.70;99889.00;;;;338573;28;88703;-88
2021/06/07 00:03:37;;;;;;;10.07;7.78;;;18.70;95.80;18.70;99891.00;;;;340183;28;88825;-88
2021/06/07 00:03:49;;;;;;;9.05;7.75;;;18.70;95.80;18.80;99885.00;;;;338552;28;88116;-88
2021/06/07 00:04:02;;;;;;;9.30;8.23;;;18.70;95.80;18.70;99887.00;;;;341312;28;90082;-88
2021/06/07 00:04:14;;;;;;;9.70;8.70;;;18.70;95.70;18.70;99882.00;;;;342571;28;91504;-88
2021/06/07 00:04:27;;;;;;;9.43;8.48;;;18.70;95.70;18.70;99881.00;;;;341627;28;91789;-87
2021/06/07 00:04:39;;;;;;;9.27;8.32;;;18.70;96.00;18.70;99885.00;;;;340193;28;87995;-87
2021/06/07 00:04:50;;;;;;;9.77;8.38;;;18.70;95.80;18.70;99884.00;;;;341345;28;90907;-88
2021/06/07 00:05:03;;;;;;;9.05;7.75;;;18.70;95.80;18.70;99893.00;;;;337071;28;87615;-88
2021/06/07 00:05:17;;;;;;;8.93;7.35;;;18.70;96.00;18.70;99887.00;;;;337906;28;92202;-87
2021/06/07 00:05:30;;;;;;;8.55;7.47;;;18.70;95.70;18.60;99891.00;;;;338537;28;88817;-88
2021/06/07 00:05:41;;;;;;;8.63;7.72;;;18.70;95.60;18.70;99892.00;;;;338684;28;91463;-88
2021/06/07 00:05:53;;;;;;;9.57;7.75;;;18.70;95.60;18.70;99892.00;;;;339983;28;86067;-88
2021/06/07 00:06:05;;;;;;;10.10;8.00;;;18.70;95.70;18.60;99885.00;;;;338703;28;89102;-88
2021/06/07 00:06:17;;;;;;;9.80;7.82;;;18.70;95.60;18.60;99878.00;;;;337419;28;88144;-88
2021/06/07 00:06:33;;;;;;;8.65;7.78;;;18.70;95.60;18.60;99886.00;;;;338965;28;89002;-88
2021/06/07 00:06:45;;;;;;;8.85;7.95;;;18.70;95.60;18.60;99888.00;;;;340242;28;86815;-88
2021/06/07 00:06:58;;;;;;;8.35;7.53;;;18.70;95.60;18.70;99884.00;;;;338966;28;92407;-87
2021/06/07 00:07:11;;;;;;;8.32;7.45;;;18.70;95.60;18.70;99887.00;;;;338608;28;88209;-87
2021/06/07 00:07:22;;;;;;;9.32;8.13;;;18.70;95.70;18.70;99885.00;;;;341583;28;90514;-87
2021/06/07 00:07:35;;;;;;;10.25;8.57;;;18.70;95.70;18.70;99886.00;;;;340108;28;88185;-88
2021/06/07 00:07:47;;;;;;;10.00;8.68;;;18.70;96.00;18.70;99889.00;;;;337507;28;91103;-87
2021/06/07 00:07:59;;;;;;;8.82;7.90;;;18.70;95.70;18.60;99887.00;;;;338788;28;87963;-87
2021/06/07 00:08:12;;;;;;;8.50;7.70;;;18.70;95.60;18.60;99885.00;;;;336373;28;90709;-88
2021/06/07 00:08:24;;;;;;;8.77;7.97;;;18.70;95.60;18.60;99888.00;;;;337488;28;87628;-87
2021/06/07 00:08:36;;;;;;;8.80;7.90;;;18.70;95.60;18.60;99888.00;;;;337452;28;92383;-88
2021/06/07 00:08:47;;;;;;;8.60;7.65;;;18.70;95.60;18.60;99880.00;;;;336213;28;88987;-87
2021/06/07 00:09:00;;;;;;;9.40;7.82;;;18.70;95.60;18.60;99892.00;;;;336246;28;90536;-88
2021/06/07 00:09:15;;;;;;;10.50;8.57;;;18.70;95.60;18.60;99890.00;;;;335976;28;89187;-88
2021/06/07 00:09:27;;;;;;;11.07;8.98;;;18.70;95.60;18.60;99885.00;;;;339052;28;87714;-88
2021/06/07 00:09:40;;;;;;;11.65;9.02;;;18.70;95.60;18.60;99882.00;;;;337347;28;88288;-88
2021/06/07 00:09:51;;;;;;;10.93;8.70;;;18.70;95.60;18.60;99880.00;;;;340254;28;90675;-88
2021/06/07 00:10:09;;;;;;;10.10;8.75;;;18.70;95.60;18.60;99883.00;;;;340057;28;87073;-88
2021/06/07 00:10:21;;;;;;;10.13;8.98;;;18.70;95.60;18.60;99885.00;;;;340294;28;89469;-88
2021/06/07 00:10:33;;;;;;;10.63;8.93;;;18.70;95.60;18.60;99887.00;;;;341519;28;88465;-88
2021/06/07 00:10:45;;;;;;;9.73;8.40;;;18.70;95.60;18.60;99876.00;;;;341741;28;89019;-87
2021/06/07 00:10:57;;;;;;;9.52;8.55;;;18.70;95.90;18.70;99887.00;;;;338800;28;87442;-88
2021/06/07 00:11:09;;;;;;;9.48;8.57;;;18.70;95.70;18.60;99890.00;;;;337650;28;89194;-87
2021/06/07 00:11:21;;;;;;;9.50;8.50;;;18.70;95.70;18.70;99883.00;;;;338976;28;86169;-87
2021/06/07 00:11:36;;;;;;;9.55;8.25;;;18.70;95.70;18.70;99881.00;;;;336273;28;90765;-88
2021/06/07 00:11:58;;;;;;;9.10;8.18;;;18.70;95.60;18.70;99883.00;;;;338899;28;85950;-88
2021/06/07 00:12:14;;;;;;;8.52;7.60;;;18.70;95.60;18.60;99885.00;;;;338724;28;90827;-87
2021/06/07 00:12:26;;;;;;;8.93;7.72;;;18.70;95.60;18.60;99886.00;;;;341499;28;86782;-88
2021/06/07 00:12:38;;;;;;;8.70;7.78;;;18.70;95.60;18.70;99886.00;;;;337596;28;90804;-87
2021/06/07 00:12:50;;;;;;;8.77;7.85;;;18.70;95.70;18.70;99881.00;;;;339941;28;88271;-87
2021/06/07 00:13:03;;;;;;;9.65;8.05;;;18.70;95.70;18.60;99883.00;;;;337532;28;91497;-87
2021/06/07 00:13:15;;;;;;;9.73;8.13;;;18.70;95.60;18.60;99883.00;;;;340520;28;87079;-88
2021/06/07 00:13:27;;;;;;;9.32;7.75;;;18.70;95.60;18.60;99887.00;;;;341845;28;91386;-87
2021/06/07 00:13:40;;;;;;;9.70;7.68;;;18.70;95.60;18.70;99888.00;;;;340140;28;86097;-88
2021/06/07 00:13:52;;;;;;;9.45;7.72;;;18.70;95.60;18.70;99884.00;;;;338973;28;90829;-88
2021/06/07 00:14:04;;;;;;;9.10;8.02;;;18.70;95.90;18.60;99881.00;;;;340165;28;86832;-87
2021/06/07 00:14:18;;;;;;;9.05;8.10;;;18.70;95.70;18.60;99881.00;;;;337665;28;91589;-88
2021/06/07 00:14:31;;;;;;;12.18;8.20;;;18.70;95.60;18.60;99880.00;;;;338865;28;86118;-88
2021/06/07 00:14:43;;;;;;;12.95;8.60;;;18.70;95.60;18.60;99887.00;;;;340012;28;91019;-86
2021/06/07 00:14:55;;;;;;;11.68;8.40;;;18.70;95.60;18.60;99880.00;;;;340117;28;87978;-87
2021/06/07 00:15:12;;;;;;;8.73;7.82;;;18.70;95.60;18.70;99888.00;;;;340135;28;91326;-87
2021/06/07 00:15:25;;;;;;;8.10;7.30;;;18.70;95.60;18.70;99887.00;;;;338781;28;87345;-87
2021/06/07 00:15:37;;;;;;;8.48;7.53;;;18.70;95.70;18.70;99885.00;;;;338893;28;92003;-88
2021/06/07 00:15:49;;;;;;;9.30;7.70;;;18.70;95.70;18.80;99881.00;;;;340140;28;86506;-87
2021/06/07 00:16:01;;;;;;;10.63;7.50;;;18.70;95.70;18.80;99879.00;;;;340394;28;88137;-87
2021/06/07 00:16:13;;;;;;;12.05;7.35;;;18.70;95.70;18.80;99885.00;;;;336459;28;89469;-87
2021/06/07 00:16:25;;;;;;;11.27;7.53;;;18.70;95.70;18.80;99883.00;;;;339289;28;91391;-87
2021/06/07 00:16:37;;;;;;;9.00;7.65;;;18.70;95.60;18.80;99893.00;;;;341534;28;87112;-88
2021/06/07 00:16:49;;;;;;;9.15;7.80;;;18.70;95.60;18.70;99880.00;;;;337536;28;91764;-87
2021/06/07 00:17:02;;;;;;;8.70;7.80;;;18.70;95.60;18.80;99876.00;;;;341507;28;86776;-87
2021/06/07 00:17:14;;;;;;;8.60;7.68;;;18.70;95.70;18.80;99885.00;;;;340250;28;89753;-87
2021/06/07 00:17:26;;;;;;;8.43;7.53;;;18.70;95.70;18.80;99879.00;;;;341499;28;88445;-88
2021/06/07 00:17:39;;;;;;;8.02;7.22;;;18.70;95.80;18.80;99881.00;;;;338990;28;89315;-87
2021/06/07 00:17:51;;;;;;;8.48;7.60;;;18.70;95.50;18.80;99889.00;;;;338694;28;88826;-87
2021/06/07 00:18:04;;;;;;;9.10;8.20;;;18.70;95.50;18.80;99883.00;;;;337629;28;91281;-87
2021/06/07 00:18:16;;;;;;;9.38;8.23;;;18.80;95.60;18.70;99888.00;;;;340000;28;88929;-88
2021/06/07 00:18:28;;;;;;;10.10;8.25;;;18.80;95.50;18.70;99888.00;;;;338864;28;91948;-88
2021/06/07 00:18:40;;;;;;;9.52;7.63;;;18.80;95.50;18.70;99891.00;;;;342712;28;88119;-88
2021/06/07 00:18:51;;;;;;;9.32;7.60;;;18.80;95.50;18.80;99890.00;;;;341760;28;89249;-88
2021/06/07 00:19:11;;;;;;;9.02;7.60;;;18.80;95.50;18.80;99884.00;;;;341424;28;86932;-88
2021/06/07 00:19:26;;;;;;;9.38;7.75;;;18.80;95.60;18.70;99881.00;;;;341579;28;91565;-88
2021/06/07 00:19:40;;;;;;;8.90;7.82;;;18.80;95.50;18.70;99894.00;;;;340065;28;87061;-88
2021/06/07 00:19:51;;;;;;;9.57;8.23;;;18.80;95.40;18.70;99885.00;;;;338955;28;92401;-87
2021/06/07 00:20:12;;;;;;;9.60;8.13;;;18.80;95.50;18.70;99898.00;;;;341458;28;88347;-88
2021/06/07 00:20:36;;;;;;;10.27;8.35;;;18.70;95.50;18.80;99886.00;;;;340278;28;87752;-88
2021/06/07 00:21:16;;;;;;;9.18;8.10;;;18.70;95.50;18.70;99885.00;;;;340154;28;86908;-88
2021/06/07 00:21:29;;;;;;;9.05;8.15;;;18.70;95.50;18.60;99884.00;;;;341329;28;92809;-87
2021/06/07 00:21:41;;;;;;;9.52;8.48;;;18.70;95.50;18.70;99884.00;;;;342495;28;89245;-88
2021/06/07 00:21:53;;;;;;;9.85;8.85;;;18.70;95.50;18.70;99881.00;;;;342974;28;88781;-88
2021/06/07 00:22:05;;;;;;;9.13;8.20;;;18.70;95.50;18.80;99893.00;;;;340092;28;87374;-87
2021/06/07 00:22:17;;;;;;;8.65;7.82;;;18.80;95.60;18.60;99888.00;;;;344810;28;92025;-87
2021/06/07 00:22:28;;;;;;;8.82;7.93;;;18.70;95.50;18.70;99883.00;;;;342901;28;86733;-88
2021/06/07 00:22:40;;;;;;;9.52;8.52;;;18.70;95.50;18.60;99888.00;;;;343171;28;87950;-88
2021/06/07 00:22:52;;;;;;;10.25;8.82;;;18.70;95.50;18.70;99886.00;;;;341626;28;87470;-87
2021/06/07 00:23:05;;;;;;;10.73;8.68;;;18.70;95.60;18.70;99889.00;;;;341605;28;91798;-87
2021/06/07 00:23:17;;;;;;;10.02;8.27;;;18.70;95.60;18.70;99884.00;;;;342583;28;88160;-88
2021/06/07 00:23:29;;;;;;;10.07;8.57;;;18.70;95.60;18.70;99880.00;;;;341574;28;92278;-87
2021/06/07 00:23:41;;;;;;;10.90;9.10;;;18.70;95.60;18.70;99877.00;;;;340204;28;87492;-88
2021/06/07 00:23:54;;;;;;;10.25;8.52;;;18.70;95.60;18.70;99879.00;;;;341870;28;89273;-88
2021/06/07 00:24:07;;;;;;;9.27;7.82;;;18.70;95.60;18.70;99886.00;;;;338704;28;86910;-88
2021/06/07 00:24:19;;;;;;;8.57;7.68;;;18.70;95.60;18.70;99885.00;;;;337541;28;88844;-87
2021/06/07 00:24:30;;;;;;;9.30;8.15;;;18.70;95.80;18.80;99891.00;;;;340333;28;87586;-87
2021/06/07 00:24:42;;;;;;;9.77;8.38;;;18.70;95.60;18.70;99886.00;;;;336571;29;90571;-88
2021/06/07 00:24:54;;;;;;;9.90;8.35;;;18.70;95.50;18.80;99884.00;;;;340566;28;85274;-87
2021/06/07 00:25:08;;;;;;;9.55;8.13;;;18.70;95.50;18.70;99878.00;;;;340581;28;87099;-87
2021/06/07 00:25:20;;;;;;;9.95;8.35;;;18.80;95.50;18.70;99881.00;;;;341112;28;87715;-87
2021/06/07 00:25:32;;;;;;;9.65;8.38;;;18.70;95.40;18.60;99885.00;;;;344683;28;91250;-87
2021/06/07 00:25:45;;;;;;;9.57;8.02;;;18.70;95.40;18.60;99879.00;;;;340321;28;86073;-87
2021/06/07 00:25:57;;;;;;;9.90;8.30;;;18.70;95.50;18.60;99886.00;;;;343267;28;88140;-88
2021/06/07 00:26:09;;;;;;;10.82;9.02;;;18.70;95.50;18.60;99891.00;;;;339241;28;88259;-87
2021/06/07 00:26:21;;;;;;;10.82;9.27;;;18.70;95.80;18.60;99882.00;;;;341111;28;90617;-87
2021/06/07 00:26:33;;;;;;;11.32;9.07;;;18.70;95.50;18.50;99879.00;;;;340655;28;86909;-86
2021/06/07 00:26:46;;;;;;;11.82;8.55;;;18.70;95.60;18.60;99881.00;;;;343121;28;90657;-88
2021/06/07 00:26:58;;;;;;;11.43;8.13;;;18.70;95.60;18.70;99880.00;;;;341851;28;89179;-86
2021/06/07 00:27:10;;;;;;;10.43;8.48;;;18.70;95.60;18.60;99881.00;;;;341835;28;89569;-87
2021/06/07 00:27:22;;;;;;;10.27;8.98;;;18.70;95.60;18.70;99881.00;;;;344374;28;86408;-87
2021/06/07 00:27:34;;;;;;;10.20;9.20;;;18.60;95.60;18.60;99889.00;;;;344683;28;90499;-88
2021/06/07 00:27:45;;;;;;;10.32;9.27;;;18.70;95.60;18.70;99884.00;;;;341928;28;87368;-87
2021/06/07 00:27:57;;;;;;;9.95;8.95;;;18.70;95.90;18.70;99890.00;;;;340764;28;90701;-88
2021/06/07 00:28:10;;;;;;;9.60;8.63;;;18.70;95.60;18.70;99881.00;;;;342060;28;88003;-88
2021/06/07 00:28:22;;;;;;;9.77;8.40;;;18.70;95.60;18.70;99884.00;;;;341145;28;90359;-88
2021/06/07 00:28:34;;;;;;;10.15;8.43;;;18.70;95.60;18.70;99882.00;;;;341996;28;86009;-87
2021/06/07 00:28:46;;;;;;;9.57;8.27;;;18.70;95.60;18.70;99879.00;;;;343527;28;87835;-87
2021/06/07 00:28:58;;;;;;;9.55;8.27;;;18.70;95.70;18.70;99884.00;;;;341947;28;86313;-88
2021/06/07 00:29:10;;;;;;;9.82;8.27;;;18.70;95.60;18.70;99887.00;;;;343587;28;90149;-87
2021/06/07 00:29:22;;;;;;;9.90;8.55;;;18.70;95.80;18.60;99877.00;;;;340185;28;87012;-86
2021/06/07 00:29:34;;;;;;;10.45;9.35;;;18.70;95.60;18.60;99883.00;;;;342942;28;90982;-88
2021/06/07 00:29:46;;;;;;;11.45;9.75;;;18.70;95.50;18.60;99887.00;;;;339004;28;87597;-87
2021/06/07 00:29:58;;;;;;;10.63;9.13;;;18.70;95.60;18.60;99891.00;;;;339960;28;88026;-88
2021/06/07 00:30:10;;;;;;;10.65;8.60;;;18.70;95.50;18.50;99880.00;;;;342553;28;87486;-87
2021/06/07 00:30:22;;;;;;;10.50;8.75;;;18.70;95.60;18.60;99876.00;;;;338902;28;87917;-88
2021/06/07 00:30:34;;;;;;;10.13;8.90;;;18.60;95.60;18.60;99884.00;;;;340186;28;86865;-88
2021/06/07 00:30:46;;;;;;;10.85;8.98;;;18.60;95.60;18.50;99881.00;;;;342913;28;91221;-87
2021/06/07 00:31:00;;;;;;;11.05;8.88;;;18.70;95.60;18.60;99880.00;;;;340101;28;87113;-88
2021/06/07 00:31:13;;;;;;;11.20;8.82;;;18.60;95.60;18.60;99878.00;;;;345537;28;88887;-88
2021/06/07 00:31:25;;;;;;;11.68;8.88;;;18.60;95.60;18.60;99875.00;;;;342036;28;87244;-88
2021/06/07 00:31:39;;;;;;;10.57;8.93;;;18.70;95.60;18.70;99877.00;;;;340886;28;92293;-88
2021/06/07 00:31:51;;;;;;;10.32;9.13;;;18.60;95.60;18.60;99876.00;;;;340089;28;89136;-87
2021/06/07 00:32:04;;;;;;;11.35;9.85;;;18.70;95.60;18.70;99874.00;;;;341531;28;92060;-88
2021/06/07 00:32:16;;;;;;;12.55;10.05;;;18.70;95.60;18.70;99880.00;;;;341290;28;87616;-88
2021/06/07 00:32:28;;;;;;;12.90;9.25;;;18.70;95.70;18.70;99874.00;;;;341265;28;90611;-88
2021/06/07 00:32:40;;;;;;;10.88;8.45;;;18.70;95.80;18.60;99876.00;;;;339948;28;87970;-87
2021/06/07 00:32:52;;;;;;;10.77;8.73;;;18.70;95.60;18.50;99883.00;;;;337571;28;91621;-88
2021/06/07 00:33:04;;;;;;;9.70;8.70;;;18.70;95.60;18.40;99880.00;;;;338792;28;86273;-88
2021/06/07 00:33:16;;;;;;;9.93;8.93;;;18.60;95.50;18.50;99880.00;;;;338907;28;87008;-88
2021/06/07 00:33:28;;;;;;;9.82;8.82;;;18.60;95.50;18.60;99874.00;;;;337494;28;87071;-88
2021/06/07 00:33:40;;;;;;;9.88;8.88;;;18.60;95.60;18.60;99873.00;;;;341521;28;90520;-87
2021/06/07 00:33:52;;;;;;;9.90;8.90;;;18.60;95.60;18.60;99876.00;;;;340079;28;87123;-87
2021/06/07 00:34:05;;;;;;;10.60;9.13;;;18.60;95.60;18.60;99876.00;;;;341409;28;89558;-88
2021/06/07 00:34:17;;;;;;;11.75;9.40;;;18.60;95.60;18.60;99881.00;;;;341106;28;87160;-88
2021/06/07 00:34:29;;;;;;;12.73;9.52;;;18.60;95.60;18.60;99878.00;;;;340150;28;88923;-88
2021/06/07 00:34:41;;;;;;;11.63;9.02;;;18.60;95.60;18.50;99878.00;;;;341317;28;89084;-88
2021/06/07 00:34:52;;;;;;;10.50;8.95;;;18.60;95.60;18.50;99876.00;;;;341692;28;88787;-87
2021/06/07 00:35:05;;;;;;;11.02;9.23;;;18.60;95.60;18.50;99876.00;;;;341141;28;86801;-88
2021/06/07 00:35:20;;;;;;;12.95;9.57;;;18.60;95.60;18.50;99870.00;;;;338956;28;88101;-88
2021/06/07 00:35:32;;;;;;;13.38;9.65;;;18.60;95.60;18.50;99884.00;;;;341282;28;87828;-88
2021/06/07 00:35:44;;;;;;;12.43;10.10;;;18.60;95.60;18.50;99882.00;;;;338649;28;90511;-87
2021/06/07 00:35:56;;;;;;;11.80;9.95;;;18.60;95.60;18.50;99885.00;;;;340219;28;86924;-88
2021/06/07 00:36:08;;;;;;;10.38;8.93;;;18.60;95.60;18.50;99872.00;;;;340220;28;91436;-88
2021/06/07 00:36:21;;;;;;;10.75;8.95;;;18.60;95.70;18.50;99881.00;;;;340061;28;88024;-87
2021/06/07 00:36:35;;;;;;;11.88;9.48;;;18.60;95.70;18.50;99878.00;;;;338927;28;87837;-87
2021/06/07 00:36:47;;;;;;;10.90;9.40;;;18.50;95.70;18.50;99877.00;;;;338741;28;87300;-87
2021/06/07 00:36:58;;;;;;;10.73;9.35;;;18.50;95.70;18.50;99880.00;;;;338937;28;88907;-88
2021/06/07 00:37:10;;;;;;;9.93;8.73;;;18.50;95.70;18.50;99884.00;;;;338572;28;89089;-87
2021/06/07 00:37:22;;;;;;;10.13;8.80;;;18.50;95.70;18.50;99876.00;;;;337036;28;87514;-88
2021/06/07 00:37:34;;;;;;;10.18;8.90;;;18.50;95.70;18.60;99886.00;;;;340026;28;87303;-88
2021/06/07 00:37:46;;;;;;;11.95;9.43;;;18.50;95.70;18.60;99883.00;;;;341514;28;89124;-88
2021/06/07 00:37:58;;;;;;;12.32;9.15;;;18.50;95.70;18.40;99882.00;;;;338758;28;87206;-88
2021/06/07 00:38:10;;;;;;;11.68;8.77;;;18.50;95.70;18.50;99882.00;;;;339715;28;90782;-87
2021/06/07 00:38:22;;;;;;;9.90;8.73;;;18.50;95.70;18.50;99887.00;;;;341453;28;86860;-87
2021/06/07 00:38:35;;;;;;;10.73;9.20;;;18.50;95.70;18.40;99885.00;;;;339877;28;91589;-87
2021/06/07 00:38:50;;;;;;;12.65;9.93;;;18.50;95.70;18.50;99883.00;;;;336164;28;87000;-88
2021/06/07 00:39:05;;;;;;;11.77;10.05;;;18.50;95.70;18.50;99883.00;;;;340134;28;92459;-87
2021/06/07 00:39:18;;;;;;;10.65;9.55;;;18.50;95.70;18.50;99886.00;;;;337479;28;87474;-88
2021/06/07 00:39:30;;;;;;;11.02;9.05;;;18.50;96.10;18.50;99882.00;;;;341498;28;90473;-87
2021/06/07 00:39:42;;;;;;;11.50;9.30;;;18.50;95.80;18.40;99888.00;;;;336252;28;86492;-88
2021/06/07 00:39:53;;;;;;;11.23;9.52;;;18.50;95.80;18.40;99888.00;;;;340251;28;89110;-88
2021/06/07 00:40:06;;;;;;;11.82;9.70;;;18.50;95.80;18.40;99887.00;;;;339903;28;87558;-88
2021/06/07 00:40:18;;;;;;;13.15;9.93;;;18.50;95.70;18.40;99888.00;;;;339559;28;91393;-88
2021/06/07 00:40:30;;;;;;;12.43;9.98;;;18.50;95.80;18.40;99886.00;;;;341432;28;86967;-88
2021/06/07 00:40:42;;;;;;;12.88;10.52;;;18.50;95.80;18.40;99887.00;;;;335726;28;89340;-87
2021/06/07 00:40:55;;;;;;;13.18;10.55;;;18.50;95.80;18.50;99885.00;;;;337439;28;86887;-88
2021/06/07 00:41:08;;;;;;;12.80;10.02;;;18.50;95.80;18.50;99886.00;;;;338799;28;88828;-87
2021/06/07 00:41:20;;;;;;;11.70;9.52;;;18.50;95.80;18.50;99886.00;;;;338833;28;88938;-88
2021/06/07 00:41:32;;;;;;;12.38;9.55;;;18.50;95.80;18.50;99879.00;;;;337489;28;91376;-88
2021/06/07 00:41:47;;;;;;;14.25;9.48;;;18.50;95.80;18.40;99888.00;;;;340066;28;88666;-88
2021/06/07 00:41:59;;;;;;;14.07;9.30;;;18.50;95.80;18.40;99891.00;;;;339987;28;90295;-87
2021/06/07 00:42:11;;;;;;;11.65;9.45;;;18.50;95.80;18.40;99893.00;;;;337284;28;88483;-87
2021/06/07 00:42:23;;;;;;;12.52;9.48;;;18.50;95.80;18.50;99887.00;;;;339969;28;90487;-88
2021/06/07 00:42:35;;;;;;;12.30;9.70;;;18.50;96.10;18.50;99884.00;;;;338535;28;87225;-88
2021/06/07 00:42:46;;;;;;;11.93;9.55;;;18.50;95.80;18.40;99888.00;;;;341566;28;89320;-88
2021/06/07 00:42:58;;;;;;;10.45;9.20;;;18.50;95.80;18.50;99884.00;;;;338865;28;86108;-87
2021/06/07 00:43:11;;;;;;;10.77;9.48;;;18.50;95.80;18.40;99880.00;;;;341466;28;88793;-88
2021/06/07 00:43:23;;;;;;;11.10;9.73;;;18.50;95.80;18.40;99886.00;;;;337896;28;86716;-88
2021/06/07 00:43:35;;;;;;;10.60;9.13;;;18.50;95.80;18.50;99887.00;;;;341659;28;89962;-87
2021/06/07 00:44:01;;;;;;;9.55;8.45;;;18.50;95.80;18.40;99894.00;;;;340166;28;88068;-88
2021/06/07 00:44:18;;;;;;;10.27;8.82;;;18.50;95.80;18.50;99889.00;;;;340740;28;91777;-88
2021/06/07 00:44:30;;;;;;;11.20;9.23;;;18.50;96.10;18.40;99883.00;;;;341313;28;86912;-88
2021/06/07 00:44:42;;;;;;;12.50;9.60;;;18.50;95.80;18.40;99883.00;;;;341575;28;91944;-87
2021/06/07 00:44:54;;;;;;;11.98;9.48;;;18.40;95.80;18.50;99891.00;;;;340011;28;87537;-87
2021/06/07 00:45:12;;;;;;;11.15;9.25;;;18.50;95.80;18.40;99892.00;;;;341329;28;90175;-87
2021/06/07 00:45:30;;;;;;;10.60;8.88;;;18.50;95.90;18.40;99890.00;;;;340136;28;86804;-88
2021/06/07 00:45:42;;;;;;;10.98;9.25;;;18.50;95.90;18.30;99895.00;;;;341240;28;91093;-88
2021/06/07 00:45:53;;;;;;;11.20;9.55;;;18.50;95.80;18.20;99888.00;;;;338727;28;87948;-88
2021/06/07 00:46:05;;;;;;;10.52;9.43;;;18.40;95.80;18.20;99894.00;;;;339977;28;90840;-87
2021/06/07 00:46:17;;;;;;;10.27;9.18;;;18.40;95.90;18.30;99888.00;;;;342492;28;87886;-87
2021/06/07 00:46:29;;;;;;;11.20;9.38;;;18.40;95.90;18.30;99890.00;;;;342693;28;91503;-87
2021/06/07 00:46:41;;;;;;;12.38;9.68;;;18.40;96.00;18.30;99887.00;;;;340575;28;87318;-88
2021/06/07 00:46:53;;;;;;;13.27;10.00;;;18.40;96.00;18.30;99886.00;;;;341580;28;89604;-88
2021/06/07 00:47:05;;;;;;;12.80;10.02;;;18.40;96.00;18.30;99884.00;;;;340005;28;89602;-87
2021/06/07 00:47:17;;;;;;;11.30;9.85;;;18.40;96.00;18.30;99894.00;;;;340098;28;89274;-88
2021/06/07 00:47:29;;;;;;;11.70;9.57;;;18.40;96.00;18.40;99895.00;;;;340228;28;86751;-88
2021/06/07 00:47:41;;;;;;;11.98;9.02;;;18.40;96.00;18.30;99886.00;;;;338888;28;90404;-88
2021/06/07 00:47:54;;;;;;;10.70;8.73;;;18.30;96.00;18.40;99892.00;;;;339943;28;87304;-88
2021/06/07 00:48:07;;;;;;;10.40;9.23;;;18.30;96.00;18.30;99892.00;;;;338762;28;91198;-88
2021/06/07 00:48:18;;;;;;;11.25;9.77;;;18.30;96.00;18.40;99893.00;;;;340006;28;88748;-88
2021/06/07 00:48:31;;;;;;;13.05;9.30;;;18.40;96.10;18.30;99892.00;;;;338941;28;89171;-88
2021/06/07 00:48:43;;;;;;;11.98;8.52;;;18.30;96.00;18.30;99892.00;;;;340042;28;88547;-88
2021/06/07 00:48:55;;;;;;;10.27;8.65;;;18.30;96.00;18.30;99882.00;;;;340267;28;88931;-88
2021/06/07 00:49:08;;;;;;;10.30;9.30;;;18.30;96.10;18.30;99876.00;;;;340995;28;88404;-88
2021/06/07 00:49:19;;;;;;;10.80;9.70;;;18.30;96.10;18.30;99890.00;;;;341234;28;88891;-87
2021/06/07 00:49:31;;;;;;;10.65;9.63;;;18.30;96.10;18.40;99884.00;;;;340050;28;87528;-88
2021/06/07 00:49:43;;;;;;;10.77;9.68;;;18.30;96.10;18.40;99881.00;;;;340007;28;91897;-88
2021/06/07 00:49:55;;;;;;;10.88;9.68;;;18.30;96.10;18.40;99886.00;;;;340184;28;86134;-87
2021/06/07 00:50:11;;;;;;;10.50;9.40;;;18.30;96.10;18.40;99888.00;;;;341529;28;90597;-87
2021/06/07 00:50:41;;;;;;;9.75;8.27;;;18.40;96.20;18.30;99888.00;;;;341024;28;88512;-88
2021/06/07 00:51:05;;;;;;;9.70;8.18;;;18.30;96.10;18.30;99875.00;;;;342877;28;91878;-87
2021/06/07 00:51:17;;;;;;;11.73;9.30;;;18.30;96.00;18.20;99887.00;;;;341412;28;87425;-88
2021/06/07 00:51:29;;;;;;;10.93;9.02;;;18.30;96.10;18.30;99880.00;;;;337661;28;89234;-88
2021/06/07 00:51:41;;;;;;;10.43;9.27;;;18.30;96.10;18.30;99879.00;;;;338529;28;88733;-88
2021/06/07 00:51:53;;;;;;;10.30;9.30;;;18.30;96.10;18.30;99886.00;;;;338814;28;90691;-88
2021/06/07 00:52:06;;;;;;;10.45;9.35;;;18.30;96.10;18.30;99886.00;;;;337375;28;86881;-88
2021/06/07 00:52:17;;;;;;;10.70;9.10;;;18.30;96.10;18.30;99879.00;;;;339701;28;88801;-88
2021/06/07 00:52:29;;;;;;;11.20;9.38;;;18.30;96.10;18.30;99883.00;;;;341283;28;90891;-88
2021/06/07 00:53:00;;;;;;;11.52;9.45;;;18.30;96.10;18.30;99880.00;;;;342278;28;88807;-88
2021/06/07 00:53:14;;;;;;;10.80;8.88;;;18.30;96.10;18.30;99878.00;;;;341743;28;88806;-88
2021/06/07 00:53:26;;;;;;;12.93;9.40;;;18.30;96.10;18.30;99887.00;;;;344327;28;89729;-88
2021/06/07 00:53:38;;;;;;;14.20;10.20;;;18.30;96.10;18.30;99880.00;;;;340045;28;87270;-88
2021/06/07 00:53:50;;;;;;;12.57;10.75;;;18.30;96.10;18.30;99878.00;;;;338869;28;88975;-88
2021/06/07 00:54:03;;;;;;;12.27;10.38;;;18.30;96.10;18.30;99877.00;;;;341460;28;86918;-88
2021/06/07 00:54:17;;;;;;;13.57;10.05;;;18.30;96.10;18.30;99878.00;;;;338797;28;90904;-88
2021/06/07 00:54:29;;;;;;;13.57;9.95;;;18.30;96.40;18.30;99875.00;;;;342729;28;86969;-88
2021/06/07 00:54:41;;;;;;;11.63;9.65;;;18.30;96.10;18.30;99884.00;;;;338914;28;91463;-88
2021/06/07 00:54:53;;;;;;;10.65;9.13;;;18.30;96.10;18.30;99888.00;;;;340249;28;86108;-88
2021/06/07 00:55:05;;;;;;;11.80;9.30;;;18.30;96.20;18.30;99884.00;;;;339933;28;91040;-87
2021/06/07 00:55:17;;;;;;;11.30;9.10;;;18.30;96.10;18.30;99878.00;;;;340328;28;88567;-88
2021/06/07 00:55:57;;;;;;;11.13;9.07;;;18.30;96.10;18.40;99880.00;;;;341148;28;91748;-87
2021/06/07 00:56:11;;;;;;;10.07;8.45;;;18.30;96.20;18.30;99878.00;;;;341473;28;87053;-87
2021/06/07 00:56:23;;;;;;;10.88;8.85;;;18.30;96.20;18.30;99882.00;;;;340051;28;88873;-87
2021/06/07 00:56:35;;;;;;;11.65;8.93;;;18.30;96.10;18.30;99873.00;;;;337498;28;87095;-88
2021/06/07 00:56:47;;;;;;;11.75;9.20;;;18.30;96.10;18.30;99880.00;;;;341580;28;91617;-88
2021/06/07 00:56:59;;;;;;;11.50;9.20;;;18.30;96.20;18.30;99885.00;;;;341572;28;87332;-87
2021/06/07 00:57:11;;;;;;;10.05;8.55;;;18.30;96.40;18.30;99877.00;;;;340274;28;91965;-87
2021/06/07 00:57:22;;;;;;;10.18;9.07;;;18.30;96.20;18.30;99885.00;;;;341631;28;87081;-88
2021/06/07 00:57:34;;;;;;;10.30;9.18;;;18.30;96.20;18.40;99879.00;;;;341704;28;91151;-88
2021/06/07 00:57:46;;;;;;;10.52;8.95;;;18.30;96.20;18.30;99879.00;;;;338905;28;86977;-88
2021/06/07 00:57:59;;;;;;;10.20;8.73;;;18.30;96.10;18.40;99879.00;;;;339072;28;91701;-88
2021/06/07 00:58:11;;;;;;;9.98;8.98;;;18.30;96.20;18.40;99877.00;;;;341344;28;87109;-87